Time;durP1;ratioP1;P1;durP2;ratioP2;P2;SDS_P1;SDS_P2;PMS_P1;PMS_P2;Temp;Humidity;BMP_temperature;BMP_pressure;BME280_temperature;BME280_humidity;BME280_pressure;Samples;Min_cycle;Max_cycle;Signal;HPM_P1;HPM_P2
2022/03/13 00:00:59;;;;;;;;;7.75;7.50;;;;;12.03;62.25;100539.06;2097198;28;47460;-67
2022/03/13 00:02:00;;;;;;;;;8.40;7.40;;;;;12.05;62.43;100533.69;2106339;27;47327;-65
2022/03/13 00:03:06;;;;;;;;;13.00;11.00;;;;;12.05;62.35;100539.88;2121150;27;47931;-68
2022/03/13 00:04:06;;;;;;;;;11.50;11.50;;;;;12.05;62.00;100529.22;2130522;27;47542;-66
2022/03/13 00:05:09;;;;;;;;;10.00;10.00;;;;;12.06;62.02;100543.41;2130387;27;47116;-64
2022/03/13 00:06:11;;;;;;;;;8.50;8.50;;;;;12.05;61.87;100542.53;2130734;27;47508;-66
2022/03/13 00:07:21;;;;;;;;;7.75;6.00;;;;;12.06;61.96;100544.28;2130410;27;47534;-65
2022/03/13 00:08:31;;;;;;;;;9.25;9.25;;;;;12.07;61.76;100542.50;2130495;27;47298;-66
2022/03/13 00:09:32;;;;;;;;;11.25;10.00;;;;;12.06;62.02;100544.28;2130372;27;47963;-66
2022/03/13 00:10:32;;;;;;;;;10.00;10.00;;;;;12.05;62.14;100534.56;2130180;27;47874;-65
2022/03/13 00:11:34;;;;;;;;;8.33;8.33;;;;;12.04;61.98;100543.44;2130154;27;48008;-63
2022/03/13 00:12:34;;;;;;;;;8.50;7.50;;;;;12.04;61.58;100543.44;2130388;27;48236;-67
2022/03/13 00:13:48;;;;;;;;;10.00;9.25;;;;;12.04;61.70;100538.13;2130443;27;47799;-67
2022/03/13 00:14:48;;;;;;;;;12.20;11.80;;;;;12.04;61.61;100540.78;2130666;27;45861;-66
2022/03/13 00:15:51;;;;;;;;;8.67;8.67;;;;;12.03;61.75;100532.88;2123027;27;47294;-65
2022/03/13 00:16:52;;;;;;;;;9.60;9.00;;;;;12.03;61.81;100539.06;2121906;27;47262;-67
2022/03/13 00:17:53;;;;;;;;;8.00;8.00;;;;;12.03;61.79;100531.06;2122140;27;47738;-65
2022/03/13 00:18:56;;;;;;;;;10.00;10.00;;;;;12.04;61.52;100535.47;2121626;27;47163;-67
2022/03/13 00:20:00;;;;;;;;;9.00;7.75;;;;;12.05;61.57;100539.00;2121866;27;47751;-66
2022/03/13 00:21:03;;;;;;;;;9.50;9.50;;;;;12.04;61.72;100535.47;2112985;27;47866;-66
2022/03/13 00:22:05;;;;;;;;;7.00;6.25;;;;;12.05;61.56;100539.88;2112965;27;48048;-66
2022/03/13 00:23:06;;;;;;;;;10.50;10.00;;;;;12.05;61.66;100533.69;2116632;27;48457;-66
2022/03/13 00:24:07;;;;;;;;;9.00;9.00;;;;;12.05;61.56;100536.34;2121073;27;48078;-66
2022/03/13 00:25:09;;;;;;;;;8.75;8.75;;;;;12.05;61.51;100534.56;2121640;27;47074;-66
2022/03/13 00:26:09;;;;;;;;;10.60;9.60;;;;;12.05;61.46;100537.22;2123973;27;47668;-66
2022/03/13 00:27:10;;;;;;;;;7.67;7.67;;;;;12.06;61.40;100541.63;2129164;27;48147;-66
2022/03/13 00:28:12;;;;;;;;;9.50;9.00;;;;;12.08;61.65;100537.16;2124333;27;47217;-66
2022/03/13 00:29:12;;;;;;;;;9.50;9.25;;;;;12.11;61.50;100537.97;2121747;27;48238;-66
2022/03/13 00:30:13;;;;;;;;;5.00;5.00;;;;;12.12;61.45;100543.22;2121537;27;47695;-68
2022/03/13 00:31:13;;;;;;;;;7.50;7.50;;;;;12.13;61.45;100538.78;2121976;27;45921;-66
2022/03/13 00:32:14;;;;;;;;;8.00;8.00;;;;;12.13;61.35;100539.66;2121644;27;47496;-65
2022/03/13 00:33:15;;;;;;;;;9.00;8.00;;;;;12.14;61.62;100541.38;2121678;27;47959;-64
2022/03/13 00:34:15;;;;;;;;;6.67;6.67;;;;;12.14;61.14;100530.75;2121448;27;47407;-67
2022/03/13 00:35:16;;;;;;;;;6.75;6.00;;;;;12.14;61.09;100536.06;2121626;27;47624;-66
2022/03/13 00:36:16;;;;;;;;;11.25;11.00;;;;;12.14;61.07;100540.53;2121363;27;47851;-66
2022/03/13 00:37:17;;;;;;;;;10.00;9.00;;;;;12.15;61.08;100531.63;2121541;27;47287;-66
2022/03/13 00:38:19;;;;;;;;;7.00;7.00;;;;;12.15;60.67;100534.28;2121832;27;46731;-65
2022/03/13 00:39:19;;;;;;;;;8.00;8.00;;;;;12.14;61.04;100530.75;2121567;27;47552;-66
2022/03/13 00:40:20;;;;;;;;;10.00;9.00;;;;;12.13;60.97;100533.47;2112339;27;45842;-66
2022/03/13 00:41:21;;;;;;;;;10.00;8.00;;;;;12.13;60.85;100537.00;2112653;27;47475;-66
2022/03/13 00:42:22;;;;;;;;;7.67;7.67;;;;;12.11;60.99;100528.19;2121421;27;48214;-66
2022/03/13 00:43:24;;;;;;;;;8.67;7.33;;;;;12.12;60.59;100524.63;2121474;27;47931;-66
2022/03/13 00:44:25;;;;;;;;;5.75;5.75;;;;;12.14;60.86;100536.06;2121531;27;47861;-66
2022/03/13 00:45:27;;;;;;;;;9.00;9.00;;;;;12.14;61.01;100527.22;2121485;27;47496;-64
2022/03/13 00:46:28;;;;;;;;;5.50;5.50;;;;;12.15;60.96;100534.28;2121261;27;47479;-67
2022/03/13 00:47:29;;;;;;;;;9.00;6.50;;;;;12.14;61.07;100528.09;2121187;27;47710;-67
2022/03/13 00:48:29;;;;;;;;;6.00;5.33;;;;;12.15;60.93;100523.63;2121391;27;47346;-67
2022/03/13 00:49:30;;;;;;;;;8.67;6.00;;;;;12.17;60.76;100529.78;2124310;27;47085;-66
2022/03/13 00:50:30;;;;;;;;;6.00;6.00;;;;;12.17;60.71;100527.13;2129880;27;48284;-67
2022/03/13 00:51:31;;;;;;;;;6.67;6.67;;;;;12.18;60.73;100526.19;2123153;27;47953;-65
2022/03/13 00:52:31;;;;;;;;;7.00;7.00;;;;;12.19;60.65;100525.28;2121476;27;47740;-66
2022/03/13 00:53:32;;;;;;;;;6.00;6.00;;;;;12.19;60.61;100520.81;2121529;27;47524;-65
2022/03/13 00:54:33;;;;;;;;;7.00;7.00;;;;;12.19;60.53;100522.63;2121582;27;47464;-67
2022/03/13 00:55:34;;;;;;;;;9.00;9.00;;;;;12.18;60.60;100527.06;2121188;27;48157;-64
2022/03/13 00:56:35;;;;;;;;;7.33;7.33;;;;;12.18;60.66;100526.19;2112596;27;47544;-65
2022/03/13 00:57:35;;;;;;;;;8.67;7.67;;;;;12.17;60.52;100528.00;2115997;27;47877;-67
2022/03/13 00:58:40;;;;;;;;;7.33;7.33;;;;;12.19;60.52;100527.94;2130250;27;47608;-66
2022/03/13 00:59:41;;;;;;;;;4.25;4.25;;;;;12.18;60.48;100524.41;2122245;27;47428;-67
2022/03/13 01:00:41;;;;;;;;;6.00;6.00;;;;;12.19;60.40;100520.81;2121326;27;47137;-66
2022/03/13 01:01:42;;;;;;;;;6.00;6.00;;;;;12.18;60.54;100531.50;2121330;27;47700;-66
2022/03/13 01:02:42;;;;;;;;;7.67;7.67;;;;;12.18;60.35;100526.19;2121412;27;47820;-67
2022/03/13 01:03:42;;;;;;;;;7.00;7.00;;;;;12.17;60.48;100527.13;2121636;27;47768;-66
2022/03/13 01:04:43;;;;;;;;;7.33;7.00;;;;;12.17;60.51;100528.00;2121503;27;47373;-64
2022/03/13 01:05:43;;;;;;;;;8.00;8.00;;;;;12.16;60.54;100526.25;2121216;27;47078;-65
2022/03/13 01:06:45;;;;;;;;;7.67;7.00;;;;;12.18;60.10;100535.03;2121642;27;47837;-65
2022/03/13 01:07:46;;;;;;;;;7.25;7.25;;;;;12.18;60.41;100523.53;2121260;27;47784;-65
2022/03/13 01:08:47;;;;;;;;;8.67;8.00;;;;;12.20;60.54;100527.03;2121183;27;47397;-66
2022/03/13 01:09:48;;;;;;;;;7.50;7.50;;;;;12.21;60.37;100521.66;2121457;27;47901;-64
2022/03/13 01:10:50;;;;;;;;;8.67;6.00;;;;;12.21;60.67;100524.34;2121041;27;47322;-66
2022/03/13 01:11:50;;;;;;;;;7.50;7.00;;;;;12.22;60.19;100517.22;2121299;27;47551;-66
2022/03/13 01:12:52;;;;;;;;;8.00;7.00;;;;;12.20;60.32;100511.09;2121366;27;47725;-65
2022/03/13 01:13:54;;;;;;;;;7.25;7.25;;;;;12.20;60.47;100519.06;2121270;27;48052;-66
2022/03/13 01:14:54;;;;;;;;;7.75;6.00;;;;;12.21;60.41;100515.47;2121490;27;47551;-67
2022/03/13 01:16:00;;;;;;;;;6.00;6.00;;;;;12.21;60.32;100512.81;2121265;27;47423;-65
2022/03/13 01:17:05;;;;;;;;;7.75;6.00;;;;;12.21;60.20;100505.72;2121664;27;47840;-66
2022/03/13 01:18:05;;;;;;;;;6.75;6.75;;;;;12.22;60.27;100515.44;2121477;27;47340;-67
2022/03/13 01:19:06;;;;;;;;;8.33;6.00;;;;;12.25;60.15;100509.13;2122733;27;47076;-65
2022/03/13 01:20:16;;;;;;;;;7.33;7.00;;;;;12.26;60.20;100505.56;2130189;27;47784;-64
2022/03/13 01:21:17;;;;;;;;;6.00;6.00;;;;;12.27;60.27;100502.84;2122410;27;48125;-66
2022/03/13 01:22:18;;;;;;;;;6.00;6.00;;;;;12.29;60.02;100510.78;2121527;27;47987;-66
2022/03/13 01:23:19;;;;;;;;;9.00;9.00;;;;;12.30;60.02;100513.38;2121566;27;47285;-64
2022/03/13 01:24:26;;;;;;;;;6.00;6.00;;;;;12.31;60.14;100500.94;2121128;27;48129;-67
2022/03/13 01:25:26;;;;;;;;;5.50;5.50;;;;;12.30;60.01;100508.06;2121591;27;47709;-64
2022/03/13 01:26:28;;;;;;;;;7.00;7.00;;;;;12.29;59.77;100503.66;2121359;27;47624;-66
2022/03/13 01:27:28;;;;;;;;;5.00;5.00;;;;;12.31;59.93;100500.94;2121118;27;48082;-67
2022/03/13 01:28:29;;;;;;;;;5.67;5.67;;;;;12.31;59.75;100500.94;2121338;27;47084;-67
2022/03/13 01:29:32;;;;;;;;;8.33;7.33;;;;;12.31;59.46;100503.59;2121332;27;47074;-66
2022/03/13 01:30:32;;;;;;;;;5.00;5.00;;;;;12.29;59.63;100490.34;2121251;27;47555;-66
2022/03/13 01:31:35;;;;;;;;;7.00;7.00;;;;;12.30;59.69;100500.06;2121075;27;48054;-65
2022/03/13 01:32:36;;;;;;;;;7.00;7.00;;;;;12.29;59.87;100493.00;2121200;27;47969;-66
2022/03/13 01:33:36;;;;;;;;;7.67;7.67;;;;;12.30;59.77;100493.88;2114434;27;47840;-65
2022/03/13 01:34:41;;;;;;;;;7.00;7.00;;;;;12.31;59.58;100490.28;2120758;27;47265;-65
2022/03/13 01:35:42;;;;;;;;;5.00;5.00;;;;;12.31;59.46;100491.16;2123720;27;47843;-66
2022/03/13 01:36:42;;;;;;;;;6.00;6.00;;;;;12.31;59.59;100488.50;2121077;27;47663;-66
2022/03/13 01:37:42;;;;;;;;;6.00;6.00;;;;;12.34;59.75;100493.75;2121247;27;47271;-67
2022/03/13 01:38:43;;;;;;;;;7.00;7.00;;;;;12.36;59.54;100491.03;2121301;27;47427;-65
2022/03/13 01:39:44;;;;;;;;;4.33;4.33;;;;;12.36;59.57;100485.72;2121295;27;47939;-65
2022/03/13 01:40:44;;;;;;;;;6.00;6.00;;;;;12.36;59.39;100481.25;2121004;27;47311;-66
2022/03/13 01:41:45;;;;;;;;;5.00;5.00;;;;;12.38;59.36;100487.41;2121116;27;47840;-65
2022/03/13 01:42:47;;;;;;;;;6.00;6.00;;;;;12.38;59.44;100492.72;2121187;27;47375;-66
2022/03/13 01:43:48;;;;;;;;;8.00;7.00;;;;;12.41;59.31;100485.56;2121270;27;48183;-66
2022/03/13 01:44:48;;;;;;;;;7.00;7.00;;;;;12.42;59.06;100489.94;2121142;27;48186;-66
2022/03/13 01:45:49;;;;;;;;;6.33;6.33;;;;;12.42;59.49;100488.16;2121481;27;47465;-64
2022/03/13 01:46:49;;;;;;;;;6.33;6.33;;;;;12.43;59.38;100489.91;2121156;27;47649;-65
2022/03/13 01:47:50;;;;;;;;;7.33;6.67;;;;;12.43;59.28;100483.72;2121289;27;47240;-66
2022/03/13 01:48:52;;;;;;;;;7.00;7.00;;;;;12.43;59.12;100479.25;2122475;27;48377;-66
2022/03/13 01:49:52;;;;;;;;;6.50;6.50;;;;;12.44;59.25;100485.44;2120589;27;47418;-66
2022/03/13 01:50:54;;;;;;;;;8.00;6.00;;;;;12.45;59.31;100490.75;2114321;27;48106;-66
2022/03/13 01:51:54;;;;;;;;;8.50;7.25;;;;;12.46;59.03;100483.63;2121392;27;48049;-66
2022/03/13 01:52:55;;;;;;;;;9.00;9.00;;;;;12.45;59.16;100480.09;2129772;27;47540;-65
2022/03/13 01:53:58;;;;;;;;;7.33;7.33;;;;;12.44;58.81;100475.66;2129575;27;47897;-67
2022/03/13 01:54:59;;;;;;;;;6.75;6.75;;;;;12.43;59.07;100479.25;2129740;27;48033;-65
2022/03/13 01:55:59;;;;;;;;;7.00;6.00;;;;;12.42;58.96;100479.31;2129466;27;47587;-66
2022/03/13 01:57:01;;;;;;;;;6.67;6.00;;;;;12.41;58.97;100473.13;2129583;27;48090;-66
2022/03/13 01:58:01;;;;;;;;;6.75;5.00;;;;;12.42;58.98;100479.31;2129099;27;47986;-66
2022/03/13 01:59:03;;;;;;;;;5.00;5.00;;;;;12.41;59.02;100475.78;2128826;27;48010;-67
2022/03/13 02:00:07;;;;;;;;;6.75;5.50;;;;;12.41;59.03;100478.44;2129324;27;47434;-66
2022/03/13 02:01:08;;;;;;;;;9.75;8.75;;;;;12.41;58.85;100475.78;2129425;27;46888;-66
2022/03/13 02:02:09;;;;;;;;;7.00;7.00;;;;;12.40;58.97;100476.69;2129669;27;47615;-64
2022/03/13 02:03:09;;;;;;;;;6.33;6.33;;;;;12.40;59.06;100468.72;2129679;27;47964;-67
2022/03/13 02:04:13;;;;;;;;;7.33;7.33;;;;;12.40;59.18;100479.38;2129540;27;47895;-66
2022/03/13 02:05:29;;;;;;;;;6.00;6.00;;;;;12.40;59.13;100474.03;2129649;27;47893;-67
2022/03/13 02:06:30;;;;;;;;;7.00;7.00;;;;;12.41;59.20;100469.59;2129510;27;48158;-64
2022/03/13 02:07:30;;;;;;;;;8.00;8.00;;;;;12.41;58.95;100467.78;2129644;27;47837;-67
2022/03/13 02:08:36;;;;;;;;;7.33;7.33;;;;;12.41;59.08;100469.59;2129697;27;47519;-65
2022/03/13 02:09:36;;;;;;;;;6.00;6.00;;;;;12.40;59.18;100466.06;2129603;27;47502;-67
2022/03/13 02:10:37;;;;;;;;;6.67;5.67;;;;;12.41;58.86;100469.59;2102801;28;47471;-64
2022/03/13 02:11:40;;;;;;;;;6.00;6.00;;;;;12.41;59.13;100466.94;2098630;28;47267;-67
2022/03/13 02:12:41;;;;;;;;;7.25;7.25;;;;;12.41;58.96;100464.25;2102815;28;47769;-66
2022/03/13 02:13:42;;;;;;;;;10.00;8.50;;;;;12.41;58.90;100465.13;2111295;27;47752;-65
2022/03/13 02:14:42;;;;;;;;;8.25;7.00;;;;;12.42;58.87;100456.22;2121014;27;47386;-66
2022/03/13 02:15:43;;;;;;;;;5.67;5.67;;;;;12.43;58.85;100457.97;2121142;27;47465;-66
2022/03/13 02:16:44;;;;;;;;;8.67;7.67;;;;;12.43;58.98;100457.97;2120818;27;47672;-65
2022/03/13 02:17:44;;;;;;;;;4.33;4.33;;;;;12.42;58.85;100453.56;2121240;27;47327;-66
2022/03/13 02:18:51;;;;;;;;;8.00;7.67;;;;;12.43;58.88;100457.97;2123778;27;47751;-65
2022/03/13 02:19:51;;;;;;;;;3.50;3.50;;;;;12.44;58.99;100450.84;2129459;27;47774;-68
2022/03/13 02:20:52;;;;;;;;;5.00;5.00;;;;;12.44;59.04;100446.38;2121708;27;47278;-65
2022/03/13 02:21:53;;;;;;;;;8.00;8.00;;;;;12.44;58.91;100445.53;2120819;27;47375;-66
2022/03/13 02:23:02;;;;;;;;;9.50;9.00;;;;;12.45;58.87;100444.59;2120844;27;47865;-66
2022/03/13 02:24:09;;;;;;;;;7.00;7.00;;;;;12.45;58.81;100447.25;2120858;27;47234;-66
2022/03/13 02:25:19;;;;;;;;;8.75;8.75;;;;;12.45;58.78;100437.53;2120585;27;48086;-65
2022/03/13 02:26:20;;;;;;;;;7.50;7.50;;;;;12.44;58.88;100435.75;2120911;27;47769;-65
2022/03/13 02:27:23;;;;;;;;;8.50;7.50;;;;;12.45;58.86;100439.28;2123248;27;47686;-65
2022/03/13 02:28:28;;;;;;;;;8.50;8.50;;;;;12.44;58.83;100430.41;2120682;27;47867;-65
2022/03/13 02:29:29;;;;;;;;;7.50;7.00;;;;;12.45;58.71;100434.84;2120945;27;47486;-65
2022/03/13 02:30:30;;;;;;;;;8.00;8.00;;;;;12.45;58.91;100434.84;2111802;27;47350;-65
2022/03/13 02:31:34;;;;;;;;;8.00;8.00;;;;;12.46;58.89;100433.94;2111521;27;47692;-66
2022/03/13 02:32:34;;;;;;;;;8.00;7.75;;;;;12.45;58.70;100433.97;2120756;27;47860;-66
2022/03/13 02:33:34;;;;;;;;;11.67;8.67;;;;;12.45;58.81;100433.97;2120707;27;47354;-65
2022/03/13 02:34:35;;;;;;;;;9.00;7.00;;;;;12.44;58.76;100427.75;2120893;27;47643;-66
2022/03/13 02:35:36;;;;;;;;;10.67;9.00;;;;;12.43;58.71;100433.13;2120918;27;47982;-63
2022/03/13 02:36:36;;;;;;;;;7.00;7.00;;;;;12.41;58.57;100425.22;2106940;27;47719;-65
2022/03/13 02:37:40;;;;;;;;;6.33;6.33;;;;;12.40;58.66;100423.47;2111345;27;47745;-63
2022/03/13 02:38:40;;;;;;;;;11.75;10.50;;;;;12.40;58.71;100420.81;2121112;27;47547;-66
2022/03/13 02:39:41;;;;;;;;;9.00;9.00;;;;;12.41;58.44;100421.69;2102285;27;47082;-64
2022/03/13 02:40:41;;;;;;;;;9.00;9.00;;;;;12.40;58.69;100422.59;2103097;28;47655;-65
2022/03/13 02:41:43;;;;;;;;;10.00;7.33;;;;;12.40;58.67;100417.28;2120762;27;47421;-65
2022/03/13 02:42:43;;;;;;;;;7.50;7.50;;;;;12.40;58.89;100409.31;2120684;27;47878;-68
2022/03/13 02:43:44;;;;;;;;;10.00;9.00;;;;;12.41;58.87;100422.56;2120595;27;47576;-66
2022/03/13 02:44:44;;;;;;;;;10.00;9.00;;;;;12.40;58.69;100417.28;2120708;27;48436;-66
2022/03/13 02:45:45;;;;;;;;;10.50;10.50;;;;;12.41;58.79;100413.69;2120678;27;47956;-65
2022/03/13 02:46:45;;;;;;;;;8.00;8.00;;;;;12.38;58.86;100415.53;2120788;27;47574;-65
2022/03/13 02:47:45;;;;;;;;;9.25;9.25;;;;;12.40;58.55;100414.63;2120548;27;47559;-66
2022/03/13 02:48:47;;;;;;;;;10.00;9.50;;;;;12.38;58.49;100407.56;2125746;27;48014;-65
2022/03/13 02:49:47;;;;;;;;;7.00;6.50;;;;;12.38;58.74;100412.03;2128359;27;47959;-65
2022/03/13 02:50:47;;;;;;;;;10.00;10.00;;;;;12.37;58.24;100407.63;2111926;27;47823;-66
2022/03/13 02:51:53;;;;;;;;;8.67;8.00;;;;;12.36;58.66;100409.41;2115632;27;47195;-65
2022/03/13 02:52:54;;;;;;;;;9.00;9.00;;;;;12.35;58.61;100407.69;2129441;27;48234;-64
2022/03/13 02:53:54;;;;;;;;;9.00;9.00;;;;;12.33;58.37;100403.34;2120780;27;47854;-66
2022/03/13 02:54:55;;;;;;;;;6.33;6.33;;;;;12.31;58.56;100408.69;2105401;27;47222;-64
2022/03/13 02:55:55;;;;;;;;;9.00;8.67;;;;;12.32;58.51;100420.19;2110955;27;47959;-66
2022/03/13 02:56:57;;;;;;;;;8.00;8.00;;;;;12.30;58.54;100406.06;2122239;27;47534;-65
2022/03/13 02:57:57;;;;;;;;;9.00;8.00;;;;;12.30;58.54;100406.06;2120583;27;47925;-65
2022/03/13 02:58:58;;;;;;;;;13.00;11.67;;;;;12.28;58.41;100408.78;2120749;27;47421;-65
2022/03/13 02:59:58;;;;;;;;;9.00;8.00;;;;;12.28;58.74;100405.25;2120633;27;47832;-65
2022/03/13 03:00:59;;;;;;;;;11.00;9.33;;;;;12.26;58.71;100400.00;2120556;27;47456;-66
2022/03/13 03:02:03;;;;;;;;;11.00;9.25;;;;;12.24;58.38;100401.84;2120417;27;47968;-65
2022/03/13 03:03:03;;;;;;;;;10.50;8.75;;;;;12.22;58.38;100400.16;2122751;27;47914;-66
2022/03/13 03:04:05;;;;;;;;;9.67;9.00;;;;;12.21;58.51;100395.75;2129299;27;47417;-64
2022/03/13 03:05:07;;;;;;;;;13.25;9.75;;;;;12.21;58.38;100393.97;2121710;27;47711;-64
2022/03/13 03:06:12;;;;;;;;;9.00;9.00;;;;;12.20;58.53;100404.66;2120558;27;47740;-65
2022/03/13 03:07:13;;;;;;;;;10.00;9.00;;;;;12.19;58.43;100402.91;2120362;27;47774;-66
2022/03/13 03:08:13;;;;;;;;;9.00;9.00;;;;;12.16;58.44;100397.69;2120530;27;47695;-66
2022/03/13 03:09:16;;;;;;;;;9.33;9.33;;;;;12.13;58.59;100401.31;2120697;27;47586;-65
2022/03/13 03:10:17;;;;;;;;;13.00;12.25;;;;;12.11;58.74;100402.31;2121559;27;47471;-63
2022/03/13 03:11:17;;;;;;;;;12.75;10.75;;;;;12.11;58.43;100404.97;2118397;27;47925;-65
2022/03/13 03:12:18;;;;;;;;;11.00;11.00;;;;;12.08;58.54;100401.50;2121552;27;48219;-64
2022/03/13 03:13:19;;;;;;;;;11.67;10.00;;;;;12.07;58.70;100412.19;2130667;27;47920;-66
2022/03/13 03:14:19;;;;;;;;;8.00;8.00;;;;;12.06;58.46;100403.31;2120610;27;47781;-65
2022/03/13 03:15:20;;;;;;;;;11.00;10.33;;;;;12.03;58.55;100400.75;2121002;27;47880;-64
2022/03/13 03:16:21;;;;;;;;;9.75;9.75;;;;;12.03;58.66;100405.19;2123697;27;45745;-64
2022/03/13 03:17:21;;;;;;;;;8.67;8.00;;;;;12.03;58.60;100405.19;2121829;27;47289;-67
2022/03/13 03:18:23;;;;;;;;;7.00;7.00;;;;;12.03;58.51;100402.53;2107733;27;47680;-67
2022/03/13 03:19:24;;;;;;;;;7.75;7.75;;;;;12.00;58.40;100403.53;2112397;27;47465;-66
2022/03/13 03:20:24;;;;;;;;;13.50;12.75;;;;;12.01;58.52;100399.06;2122225;27;48035;-66
2022/03/13 03:21:26;;;;;;;;;12.67;10.67;;;;;11.99;58.53;100395.59;2122122;27;47549;-66
2022/03/13 03:22:26;;;;;;;;;10.50;9.75;;;;;11.97;58.44;100398.31;2121858;27;47789;-66
2022/03/13 03:23:27;;;;;;;;;8.67;8.67;;;;;11.94;58.74;100397.50;2121969;27;47972;-66
2022/03/13 03:24:28;;;;;;;;;4.33;4.33;;;;;11.93;58.68;100399.31;2121988;27;47791;-66
2022/03/13 03:25:29;;;;;;;;;11.50;8.75;;;;;11.93;58.65;100396.66;2122035;27;47675;-66
2022/03/13 03:26:29;;;;;;;;;12.50;8.50;;;;;11.93;58.69;100404.63;2121887;27;47738;-65
2022/03/13 03:27:31;;;;;;;;;9.33;9.00;;;;;11.93;58.66;100401.09;2121806;27;47060;-64
2022/03/13 03:28:31;;;;;;;;;7.00;7.00;;;;;11.91;58.55;100401.16;2121959;27;47686;-66
2022/03/13 03:29:32;;;;;;;;;9.00;9.00;;;;;11.90;58.52;100396.75;2122034;27;47524;-66
2022/03/13 03:30:32;;;;;;;;;7.33;7.00;;;;;11.89;58.55;100399.47;2122091;27;47356;-66
2022/03/13 03:31:33;;;;;;;;;9.00;8.33;;;;;11.89;58.67;100394.16;2122298;27;45292;-64
2022/03/13 03:32:33;;;;;;;;;10.00;8.50;;;;;11.88;58.46;100387.97;2121706;27;47605;-64
2022/03/13 03:33:34;;;;;;;;;10.00;9.00;;;;;11.89;58.81;100397.66;2122058;27;48324;-66
2022/03/13 03:34:34;;;;;;;;;9.00;9.00;;;;;11.89;58.59;100397.66;2122016;27;47286;-66
2022/03/13 03:35:35;;;;;;;;;9.67;9.00;;;;;11.90;58.60;100393.22;2122150;27;47074;-65
2022/03/13 03:36:39;;;;;;;;;12.00;12.00;;;;;11.90;58.55;100398.53;2121962;27;47777;-65
2022/03/13 03:37:40;;;;;;;;;13.00;11.25;;;;;11.90;58.50;100402.06;2121449;27;47689;-66
2022/03/13 03:38:41;;;;;;;;;11.00;11.00;;;;;11.88;58.50;100393.28;2121871;27;47124;-67
2022/03/13 03:39:42;;;;;;;;;9.00;9.00;;;;;11.89;58.49;100405.66;2103493;27;47535;-66
2022/03/13 03:40:42;;;;;;;;;9.67;9.67;;;;;11.87;58.36;100396.84;2103365;27;47984;-66
2022/03/13 03:41:45;;;;;;;;;10.00;10.00;;;;;11.86;58.60;100395.13;2121804;27;47479;-64
2022/03/13 03:42:46;;;;;;;;;9.00;9.00;;;;;11.86;58.66;100391.59;2121676;27;47889;-67
2022/03/13 03:43:46;;;;;;;;;9.67;8.67;;;;;11.87;58.48;100394.19;2121480;27;47920;-65
2022/03/13 03:44:47;;;;;;;;;11.33;11.33;;;;;11.87;58.48;100393.31;2121720;27;47835;-65
2022/03/13 03:45:47;;;;;;;;;9.00;9.00;;;;;11.86;58.60;100391.59;2121501;27;47344;-66
2022/03/13 03:46:49;;;;;;;;;11.00;9.67;;;;;11.85;58.36;100392.50;2121743;27;48178;-64
2022/03/13 03:47:50;;;;;;;;;9.50;8.75;;;;;11.86;58.43;100388.94;2122702;27;48273;-67
2022/03/13 03:48:51;;;;;;;;;8.25;8.25;;;;;11.85;58.36;100393.38;2121267;27;48013;-65
2022/03/13 03:49:51;;;;;;;;;9.00;9.00;;;;;11.84;58.32;100388.13;2120860;27;47790;-67
2022/03/13 03:50:52;;;;;;;;;9.67;9.67;;;;;11.84;58.47;100390.78;2121583;27;47505;-66
2022/03/13 03:51:52;;;;;;;;;8.33;8.00;;;;;11.83;58.63;100383.72;2121594;27;47641;-65
2022/03/13 03:52:55;;;;;;;;;8.67;8.00;;;;;11.82;58.51;100379.31;2110783;27;47705;-63
2022/03/13 03:53:56;;;;;;;;;8.75;8.50;;;;;11.82;58.43;100390.81;2112881;27;47482;-64
2022/03/13 03:54:57;;;;;;;;;9.67;9.00;;;;;11.82;58.48;100384.66;2103607;28;47372;-64
2022/03/13 03:55:58;;;;;;;;;10.00;7.00;;;;;11.82;58.43;100388.16;2103516;28;47285;-67
2022/03/13 03:56:59;;;;;;;;;8.25;8.25;;;;;11.82;58.17;100387.31;2130388;27;47518;-66
2022/03/13 03:57:59;;;;;;;;;8.00;8.00;;;;;11.81;58.29;100380.22;2124163;27;48006;-65
2022/03/13 03:59:00;;;;;;;;;7.00;6.67;;;;;11.81;58.35;100386.41;2121672;27;47056;-66
2022/03/13 04:00:00;;;;;;;;;10.25;8.75;;;;;11.80;58.45;100384.66;2121864;27;47782;-66
2022/03/13 04:01:01;;;;;;;;;10.00;10.00;;;;;11.79;58.39;100388.25;2121191;27;47539;-66
2022/03/13 04:02:02;;;;;;;;;7.67;5.00;;;;;11.77;58.25;100390.91;2121650;27;47619;-66
2022/03/13 04:03:02;;;;;;;;;11.00;11.00;;;;;11.78;58.35;100389.13;2121639;27;47771;-64
2022/03/13 04:04:04;;;;;;;;;8.00;8.00;;;;;11.78;58.16;100389.13;2112767;27;47697;-65
2022/03/13 04:05:06;;;;;;;;;10.75;8.00;;;;;11.76;58.39;100388.31;2112753;27;47426;-65
2022/03/13 04:06:06;;;;;;;;;7.25;7.25;;;;;11.75;58.17;100386.59;2121528;27;47775;-65
2022/03/13 04:07:07;;;;;;;;;9.67;9.67;;;;;11.73;58.13;100380.44;2121538;27;47925;-63
2022/03/13 04:08:07;;;;;;;;;7.67;7.67;;;;;11.70;58.12;100381.41;2122081;27;45597;-65
2022/03/13 04:09:09;;;;;;;;;8.00;8.00;;;;;11.70;58.23;100380.56;2121401;27;47961;-65
2022/03/13 04:10:10;;;;;;;;;5.50;5.25;;;;;11.70;58.32;100380.56;2121475;27;47561;-65
2022/03/13 04:11:11;;;;;;;;;8.00;8.00;;;;;11.68;58.26;100377.91;2121250;27;47563;-67
2022/03/13 04:12:12;;;;;;;;;11.00;9.33;;;;;11.67;58.29;100377.97;2121370;27;48004;-66
2022/03/13 04:13:12;;;;;;;;;9.00;9.00;;;;;11.65;58.06;100386.00;2121094;27;47285;-65
2022/03/13 04:14:14;;;;;;;;;9.00;8.67;;;;;11.67;58.02;100383.28;2121399;27;47406;-64
2022/03/13 04:15:14;;;;;;;;;9.25;8.50;;;;;11.65;58.18;100382.47;2121283;27;47782;-65
2022/03/13 04:16:14;;;;;;;;;9.00;9.00;;;;;11.64;58.04;100378.94;2121355;27;47538;-65
2022/03/13 04:17:15;;;;;;;;;6.33;6.00;;;;;11.64;58.18;100386.91;2121281;27;47363;-65
2022/03/13 04:18:15;;;;;;;;;10.67;8.00;;;;;11.64;58.05;100389.56;2128540;27;47612;-65
2022/03/13 04:19:16;;;;;;;;;6.67;6.67;;;;;11.64;58.27;100383.38;2127318;27;47421;-66
2022/03/13 04:20:16;;;;;;;;;8.67;8.67;;;;;11.63;58.23;100384.31;2121783;27;47437;-65
2022/03/13 04:21:17;;;;;;;;;8.67;8.67;;;;;11.63;58.38;100389.63;2116869;27;47815;-64
2022/03/13 04:22:18;;;;;;;;;9.25;9.25;;;;;11.63;58.17;100384.31;2120042;27;47733;-65
2022/03/13 04:23:18;;;;;;;;;6.33;6.33;;;;;11.63;57.91;100384.31;2130288;27;47405;-66
2022/03/13 04:24:19;;;;;;;;;7.33;7.33;;;;;11.60;58.05;100387.94;2111736;27;47436;-64
2022/03/13 04:25:19;;;;;;;;;7.33;7.33;;;;;11.61;57.97;100388.81;2112079;27;47290;-66
2022/03/13 04:26:24;;;;;;;;;6.33;6.33;;;;;11.59;57.99;100391.50;2122584;27;47968;-64
2022/03/13 04:27:25;;;;;;;;;8.25;8.25;;;;;11.59;58.08;100390.66;2121556;27;47576;-65
2022/03/13 04:28:27;;;;;;;;;9.00;8.00;;;;;11.59;58.18;100390.66;2124428;27;47386;-65
2022/03/13 04:29:27;;;;;;;;;8.75;8.75;;;;;11.58;58.17;100388.91;2122955;27;47916;-65
2022/03/13 04:30:29;;;;;;;;;7.00;7.00;;;;;11.57;58.02;100393.34;2123291;27;47972;-66
2022/03/13 04:31:30;;;;;;;;;10.00;9.75;;;;;11.56;58.04;100390.72;2123808;27;46076;-65
2022/03/13 04:32:31;;;;;;;;;7.00;7.00;;;;;11.55;57.91;100391.63;2126666;27;47928;-64
2022/03/13 04:33:33;;;;;;;;;9.00;9.00;;;;;11.52;57.94;100397.06;2130002;27;47773;-65
2022/03/13 04:34:33;;;;;;;;;8.00;8.00;;;;;11.52;58.17;100399.72;2130121;27;47871;-65
2022/03/13 04:35:34;;;;;;;;;8.67;7.33;;;;;11.52;58.18;100397.06;2130139;27;47465;-64
2022/03/13 04:36:37;;;;;;;;;7.33;6.33;;;;;11.50;58.09;100397.97;2130115;27;47986;-65
2022/03/13 04:37:38;;;;;;;;;7.00;7.00;;;;;11.52;58.18;100402.38;2130049;27;47426;-63
2022/03/13 04:38:39;;;;;;;;;6.33;6.33;;;;;11.50;58.10;100395.31;2120833;27;47755;-65
2022/03/13 04:39:39;;;;;;;;;6.00;6.00;;;;;11.51;58.05;100401.50;2120761;27;47983;-65
2022/03/13 04:40:40;;;;;;;;;8.67;8.67;;;;;11.51;57.89;100401.50;2130206;27;47700;-65
2022/03/13 04:41:41;;;;;;;;;9.67;9.00;;;;;11.50;57.98;100403.28;2130035;27;47578;-66
2022/03/13 04:42:42;;;;;;;;;6.75;6.75;;;;;11.50;57.99;100400.63;2130305;27;47862;-63
2022/03/13 04:43:43;;;;;;;;;7.00;7.00;;;;;11.52;57.88;100397.06;2125665;27;47745;-65
2022/03/13 04:44:44;;;;;;;;;7.00;7.00;;;;;11.53;57.99;100396.13;2121625;27;47996;-64